Time;durP1;ratioP1;P1;durP2;ratioP2;P2;SDS_P1;SDS_P2;PMS_P1;PMS_P2;Temp;Humidity;BMP_temperature;BMP_pressure;BME280_temperature;BME280_humidity;BME280_pressure;Samples;Min_cycle;Max_cycle;Signal;HPM_P1;HPM_P2
2022/03/04 00:01:07;;;;;;;3.67;3.47;;;;;;;;;;6128058;23;20180;-85
2022/03/04 00:03:35;;;;;;;3.57;3.27;;;;;;;;;;6102139;23;20199;-85
2022/03/04 00:06:04;;;;;;;2.97;2.77;;;;;;;;;;6102652;23;20180;-85
2022/03/04 00:08:32;;;;;;;1.07;1.07;;;;;;;;;;6101493;23;20183;-84
2022/03/04 00:11:02;;;;;;;4.10;3.87;;;;;;;;;;6102484;23;20219;-85
2022/03/04 00:13:34;;;;;;;0.90;0.90;;;;;;;;;;6102215;23;20177;-85
2022/03/04 00:16:03;;;;;;;4.83;3.37;;;;;;;;;;6101934;23;20187;-84
2022/03/04 00:18:32;;;;;;;1.63;1.63;;;;;;;;;;6127676;23;20191;-85
2022/03/04 00:21:02;;;;;;;1.63;1.60;;;;;;;;;;6102164;23;20204;-85
2022/03/04 00:23:31;;;;;;;7.40;4.87;;;;;;;;;;6102317;23;20183;-85
2022/03/04 00:26:00;;;;;;;3.90;3.60;;;;;;;;;;6101991;23;20263;-85
2022/03/04 00:28:28;;;;;;;2.27;2.17;;;;;;;;;;6102715;23;20180;-84
2022/03/04 00:30:57;;;;;;;7.13;5.03;;;;;;;;;;6101628;23;20192;-85
2022/03/04 00:33:27;;;;;;;7.63;4.30;;;;;;;;;;6101749;23;20184;-85
2022/03/04 00:35:56;;;;;;;6.23;3.17;;;;;;;;;;6127752;23;20251;-85
2022/03/04 00:38:24;;;;;;;4.67;4.20;;;;;;;;;;6126444;23;20184;-85
2022/03/04 00:40:52;;;;;;;5.40;4.00;;;;;;;;;;6101785;23;20196;-85
2022/03/04 00:43:21;;;;;;;9.87;5.10;;;;;;;;;;6127972;23;20236;-85
2022/03/04 00:45:49;;;;;;;5.80;5.20;;;;;;;;;;6127178;23;20227;-85
2022/03/04 00:48:18;;;;;;;6.33;5.67;;;;;;;;;;6101663;23;20262;-85
2022/03/04 00:50:48;;;;;;;9.63;4.20;;;;;;;;;;6101671;23;20196;-85
2022/03/04 00:53:17;;;;;;;6.03;5.43;;;;;;;;;;6101890;23;20195;-85
2022/03/04 00:55:46;;;;;;;0.90;0.90;;;;;;;;;;6102028;23;20243;-85
2022/03/04 01:11:46;;;;;;;9.60;7.30;;;;;;;;;;6101334;23;20183;-85
2022/03/04 01:14:14;;;;;;;10.53;7.47;;;;;;;;;;6101716;23;20183;-85
2022/03/04 01:16:43;;;;;;;3.63;2.80;;;;;;;;;;6127073;23;20191;-85
2022/03/04 01:19:11;;;;;;;4.10;3.83;;;;;;;;;;6101587;23;20245;-84
2022/03/04 01:21:40;;;;;;;4.53;2.73;;;;;;;;;;6127040;23;20207;-85
2022/03/04 01:24:08;;;;;;;7.13;5.53;;;;;;;;;;6127680;23;20196;-84
2022/03/04 01:26:37;;;;;;;6.00;5.40;;;;;;;;;;6125929;23;20177;-85
2022/03/04 01:29:07;;;;;;;6.63;5.60;;;;;;;;;;6101640;23;20176;-85
2022/03/04 01:31:35;;;;;;;4.50;3.83;;;;;;;;;;6127168;23;20192;-85
2022/03/04 01:34:04;;;;;;;6.90;5.17;;;;;;;;;;6101281;23;20190;-85
2022/03/04 01:36:33;;;;;;;5.17;3.33;;;;;;;;;;6125739;23;20176;-85
2022/03/04 01:39:01;;;;;;;6.73;6.00;;;;;;;;;;6101198;23;20177;-85
2022/03/04 01:41:30;;;;;;;5.40;3.90;;;;;;;;;;6101231;23;20180;-85
2022/03/04 01:43:58;;;;;;;6.50;5.90;;;;;;;;;;6126181;23;20200;-85
2022/03/04 01:46:30;;;;;;;15.00;9.30;;;;;;;;;;6101236;23;20299;-85
2022/03/04 01:48:59;;;;;;;2.70;2.57;;;;;;;;;;6101337;23;20240;-85
2022/03/04 01:51:27;;;;;;;9.70;6.90;;;;;;;;;;6101327;23;20236;-84
2022/03/04 01:53:56;;;;;;;8.80;7.13;;;;;;;;;;6125906;23;20180;-85
2022/03/04 01:56:25;;;;;;;13.17;7.50;;;;;;;;;;6127186;23;20173;-85
2022/03/04 01:58:53;;;;;;;9.40;6.97;;;;;;;;;;6101441;23;20176;-84
2022/03/04 02:01:22;;;;;;;5.90;4.87;;;;;;;;;;6101158;23;20172;-85
2022/03/04 02:03:52;;;;;;;10.07;5.83;;;;;;;;;;6101627;23;20203;-85
2022/03/04 02:06:21;;;;;;;15.67;10.30;;;;;;;;;;6126863;23;20180;-85
2022/03/04 02:08:49;;;;;;;6.67;6.00;;;;;;;;;;6101444;23;20202;-84
2022/03/04 02:11:18;;;;;;;12.20;8.67;;;;;;;;;;6101445;23;20224;-85
2022/03/04 02:13:46;;;;;;;11.77;5.23;;;;;;;;;;6101099;23;20206;-85
2022/03/04 02:16:19;;;;;;;6.23;5.60;;;;;;;;;;6101078;23;20200;-85
2022/03/04 02:18:48;;;;;;;8.63;7.83;;;;;;;;;;6100828;23;20187;-85
2022/03/04 02:21:20;;;;;;;9.43;6.23;;;;;;;;;;6126837;23;20187;-85
2022/03/04 02:23:50;;;;;;;3.90;3.60;;;;;;;;;;6125566;23;20190;-85
2022/03/04 02:26:18;;;;;;;16.80;10.43;;;;;;;;;;6125016;23;20180;-85
2022/03/04 02:28:46;;;;;;;15.53;10.33;;;;;;;;;;6125263;23;20180;-84
2022/03/04 02:31:16;;;;;;;14.43;9.13;;;;;;;;;;6100352;23;20180;-85
2022/03/04 02:33:44;;;;;;;14.07;7.73;;;;;;;;;;6127190;23;20180;-85
2022/03/04 02:36:12;;;;;;;11.17;6.97;;;;;;;;;;6127587;23;20186;-85
2022/03/04 02:38:41;;;;;;;11.60;10.13;;;;;;;;;;6126962;23;20202;-85
2022/03/04 02:41:11;;;;;;;11.07;6.07;;;;;;;;;;6127310;23;20190;-85
2022/03/04 02:43:39;;;;;;;8.83;6.50;;;;;;;;;;6102938;23;20179;-85
2022/03/04 02:46:08;;;;;;;14.13;9.23;;;;;;;;;;6128104;23;20216;-85
2022/03/04 02:48:36;;;;;;;10.57;7.83;;;;;;;;;;6128433;23;20254;-85
2022/03/04 02:51:04;;;;;;;15.43;10.23;;;;;;;;;;6102784;23;20186;-85
2022/03/04 02:53:33;;;;;;;16.50;11.67;;;;;;;;;;6128712;23;20192;-85
2022/03/04 02:56:02;;;;;;;17.70;11.70;;;;;;;;;;6102408;23;20180;-85
2022/03/04 02:58:31;;;;;;;13.33;10.13;;;;;;;;;;6127085;23;20185;-85
2022/03/04 03:01:01;;;;;;;13.23;9.30;;;;;;;;;;6128545;23;20179;-85
2022/03/04 03:03:29;;;;;;;8.67;4.97;;;;;;;;;;6128464;23;20274;-85
2022/03/04 03:05:58;;;;;;;7.73;7.00;;;;;;;;;;6102837;23;20184;-84
2022/03/04 03:08:28;;;;;;;6.33;4.97;;;;;;;;;;6103383;23;20176;-84
2022/03/04 03:10:59;;;;;;;10.00;7.80;;;;;;;;;;6102784;23;20267;-85
2022/03/04 03:13:28;;;;;;;5.40;4.90;;;;;;;;;;6128370;23;20204;-85
2022/03/04 03:15:57;;;;;;;9.57;7.60;;;;;;;;;;6102791;23;20175;-85
2022/03/04 03:18:26;;;;;;;9.10;4.83;;;;;;;;;;6103064;23;20179;-85
2022/03/04 03:20:55;;;;;;;5.87;4.87;;;;;;;;;;6102381;23;20180;-85
2022/03/04 03:23:23;;;;;;;3.73;3.43;;;;;;;;;;6127103;23;20180;-85
2022/03/04 03:25:51;;;;;;;9.87;6.40;;;;;;;;;;6102847;23;20238;-84
2022/03/04 03:28:20;;;;;;;3.40;2.50;;;;;;;;;;6103054;23;20179;-84
2022/03/04 03:30:48;;;;;;;8.13;5.90;;;;;;;;;;6128018;23;20195;-85
2022/03/04 03:33:18;;;;;;;4.23;3.83;;;;;;;;;;6128602;23;20194;-85
2022/03/04 03:35:46;;;;;;;5.37;4.97;;;;;;;;;;6128434;23;20183;-85
2022/03/04 03:38:15;;;;;;;12.87;4.93;;;;;;;;;;6102578;23;20204;-85
2022/03/04 03:40:44;;;;;;;6.93;6.30;;;;;;;;;;6128333;23;20183;-85
2022/03/04 03:43:32;;;;;;;9.90;6.80;;;;;;;;;;6102306;23;20180;-85
2022/03/04 03:46:01;;;;;;;12.63;7.87;;;;;;;;;;6102253;23;20206;-85
2022/03/04 03:48:31;;;;;;;12.13;8.37;;;;;;;;;;6102182;23;20184;-84
2022/03/04 03:50:59;;;;;;;8.83;6.90;;;;;;;;;;6102699;23;20186;-84
2022/03/04 03:53:28;;;;;;;9.80;5.63;;;;;;;;;;6128249;23;20227;-85
2022/03/04 03:55:56;;;;;;;9.30;6.87;;;;;;;;;;6102632;23;20187;-84
2022/03/04 03:58:25;;;;;;;11.67;8.73;;;;;;;;;;6102757;23;20179;-85
2022/03/04 04:00:55;;;;;;;9.77;7.00;;;;;;;;;;6102312;23;20187;-84
2022/03/04 04:03:23;;;;;;;25.40;9.03;;;;;;;;;;6127798;23;20202;-85
2022/03/04 04:05:53;;;;;;;7.10;5.17;;;;;;;;;;6128154;23;20176;-85
2022/03/04 04:08:21;;;;;;;7.77;5.70;;;;;;;;;;6102581;23;20190;-85
2022/03/04 04:10:50;;;;;;;11.03;7.10;;;;;;;;;;6102090;23;20176;-85
2022/03/04 04:13:18;;;;;;;8.70;7.10;;;;;;;;;;6126213;23;20214;-84
2022/03/04 04:15:47;;;;;;;6.23;4.73;;;;;;;;;;6102182;23;20176;-85
2022/03/04 04:18:15;;;;;;;10.87;8.20;;;;;;;;;;6102180;23;20179;-85
2022/03/04 04:20:44;;;;;;;13.77;7.77;;;;;;;;;;6101731;23;20180;-85
2022/03/04 04:23:14;;;;;;;8.67;5.63;;;;;;;;;;6126735;23;20190;-85
2022/03/04 04:25:42;;;;;;;6.10;5.40;;;;;;;;;;6101682;23;20227;-85
2022/03/04 04:28:10;;;;;;;15.23;9.47;;;;;;;;;;6101906;23;20189;-85
2022/03/04 04:30:39;;;;;;;10.53;7.50;;;;;;;;;;6127458;23;20178;-84
2022/03/04 04:33:07;;;;;;;4.63;4.10;;;;;;;;;;6101952;23;20194;-85
2022/03/04 04:35:36;;;;;;;4.90;3.90;;;;;;;;;;6127938;23;20203;-84
2022/03/04 04:38:04;;;;;;;6.07;3.80;;;;;;;;;;6102559;23;20179;-84
2022/03/04 04:40:34;;;;;;;12.67;8.97;;;;;;;;;;6126438;23;20182;-85
2022/03/04 04:43:02;;;;;;;5.43;4.47;;;;;;;;;;6127728;23;20164;-85
2022/03/04 04:45:31;;;;;;;7.63;6.60;;;;;;;;;;6127379;23;20326;-85
2022/03/04 04:47:59;;;;;;;7.07;5.53;;;;;;;;;;6125798;23;20180;-86
2022/03/04 04:50:27;;;;;;;4.77;3.33;;;;;;;;;;6101720;23;20173;-85
2022/03/04 04:52:56;;;;;;;4.50;3.20;;;;;;;;;;6101950;23;20191;-85
2022/03/04 04:55:25;;;;;;;7.97;7.13;;;;;;;;;;6101269;23;20180;-85
2022/03/04 04:57:54;;;;;;;4.93;4.47;;;;;;;;;;6126316;23;20176;-84
2022/03/04 05:00:23;;;;;;;14.13;9.37;;;;;;;;;;6101602;23;20188;-84
2022/03/04 05:02:51;;;;;;;14.23;9.80;;;;;;;;;;6101457;23;20206;-84
2022/03/04 05:05:20;;;;;;;11.50;7.57;;;;;;;;;;6127655;23;20179;-85
2022/03/04 05:07:49;;;;;;;11.57;8.60;;;;;;;;;;6101852;23;20187;-85
2022/03/04 05:10:17;;;;;;;13.90;7.87;;;;;;;;;;6127631;23;20171;-84
2022/03/04 05:12:46;;;;;;;10.40;8.30;;;;;;;;;;6126025;23;20184;-85
2022/03/04 05:15:16;;;;;;;9.40;5.97;;;;;;;;;;6101261;23;20188;-84
2022/03/04 05:17:45;;;;;;;7.60;6.03;;;;;;;;;;6127298;23;20172;-84
2022/03/04 05:20:14;;;;;;;4.60;4.27;;;;;;;;;;6125890;23;20190;-85
2022/03/04 05:22:42;;;;;;;13.17;7.73;;;;;;;;;;6126541;23;20176;-84
2022/03/04 05:25:11;;;;;;;7.77;4.90;;;;;;;;;;6125604;23;20190;-85
2022/03/04 05:27:45;;;;;;;8.83;5.73;;;;;;;;;;6125776;23;20207;-85
2022/03/04 05:30:14;;;;;;;6.80;6.10;;;;;;;;;;6127156;23;20187;-85
2022/03/04 05:32:43;;;;;;;9.57;7.23;;;;;;;;;;6101775;23;20187;-85
2022/03/04 05:35:12;;;;;;;8.57;6.00;;;;;;;;;;6101088;23;20202;-85
2022/03/04 05:37:41;;;;;;;10.40;8.23;;;;;;;;;;6101140;23;20174;-85
2022/03/04 05:40:10;;;;;;;8.17;4.20;;;;;;;;;;6126776;23;20205;-84
2022/03/04 05:42:38;;;;;;;9.30;6.50;;;;;;;;;;6125767;23;20183;-85
2022/03/04 05:45:07;;;;;;;9.97;6.80;;;;;;;;;;6101184;23;20178;-85
2022/03/04 05:47:35;;;;;;;10.80;6.30;;;;;;;;;;6101226;23;20182;-85
2022/03/04 05:50:06;;;;;;;9.67;7.60;;;;;;;;;;6125650;23;20182;-85
2022/03/04 05:52:34;;;;;;;11.50;7.17;;;;;;;;;;6125323;23;20205;-85
2022/03/04 05:55:02;;;;;;;6.03;4.40;;;;;;;;;;6101417;23;20206;-85
2022/03/04 05:57:31;;;;;;;5.77;5.33;;;;;;;;;;6125840;23;20182;-85
2022/03/04 05:59:59;;;;;;;10.13;8.20;;;;;;;;;;6126933;23;20176;-85
2022/03/04 06:02:28;;;;;;;11.97;8.37;;;;;;;;;;6101025;23;20198;-85
2022/03/04 06:04:57;;;;;;;5.07;4.57;;;;;;;;;;6101110;23;20183;-85
2022/03/04 06:07:28;;;;;;;19.00;8.33;;;;;;;;;;6100088;23;20186;-85
2022/03/04 06:09:56;;;;;;;14.00;8.73;;;;;;;;;;6101104;23;20179;-85
2022/03/04 06:12:24;;;;;;;8.83;6.73;;;;;;;;;;6126746;23;20179;-85
2022/03/04 06:14:53;;;;;;;6.27;5.67;;;;;;;;;;6100884;23;20207;-85
2022/03/04 06:17:21;;;;;;;8.13;7.10;;;;;;;;;;6126568;23;20177;-84
2022/03/04 06:19:50;;;;;;;15.87;10.97;;;;;;;;;;6100886;23;20244;-85
2022/03/04 06:22:20;;;;;;;21.33;11.73;;;;;;;;;;6100171;23;20189;-84
2022/03/04 06:24:50;;;;;;;13.70;8.73;;;;;;;;;;6125471;23;20252;-84
2022/03/04 06:27:18;;;;;;;14.00;9.17;;;;;;;;;;6100781;23;20182;-84
2022/03/04 06:29:47;;;;;;;12.10;8.47;;;;;;;;;;6100837;23;20189;-84
2022/03/04 06:32:15;;;;;;;6.53;5.43;;;;;;;;;;6101036;23;20185;-84
2022/03/04 06:34:44;;;;;;;15.27;10.30;;;;;;;;;;6100918;23;20198;-84
2022/03/04 06:37:12;;;;;;;21.53;14.07;;;;;;;;;;6126627;23;20181;-85
2022/03/04 06:39:41;;;;;;;6.20;4.50;;;;;;;;;;6100858;23;20179;-85
2022/03/04 06:42:11;;;;;;;15.73;10.40;;;;;;;;;;6126556;23;20179;-85
2022/03/04 06:44:39;;;;;;;13.20;8.50;;;;;;;;;;6100909;23;20194;-84
2022/03/04 06:47:08;;;;;;;16.03;10.43;;;;;;;;;;6100579;23;20212;-84
2022/03/04 06:49:37;;;;;;;15.83;11.03;;;;;;;;;;6101079;23;20265;-84
2022/03/04 06:52:06;;;;;;;9.83;7.83;;;;;;;;;;6101028;23;20186;-84
2022/03/04 06:54:36;;;;;;;11.40;9.23;;;;;;;;;;6100679;23;20198;-85
2022/03/04 06:57:04;;;;;;;12.90;9.17;;;;;;;;;;6101358;23;20174;-85
2022/03/04 06:59:34;;;;;;;13.10;10.63;;;;;;;;;;6125572;23;20182;-84
2022/03/04 07:02:06;;;;;;;8.77;7.20;;;;;;;;;;6126556;23;20209;-85
2022/03/04 07:04:35;;;;;;;15.40;10.30;;;;;;;;;;6126398;23;20191;-84
2022/03/04 07:07:03;;;;;;;10.67;9.33;;;;;;;;;;6126441;23;20182;-85
2022/03/04 07:09:32;;;;;;;9.90;6.03;;;;;;;;;;6100721;23;20210;-85
2022/03/04 07:12:00;;;;;;;10.27;8.60;;;;;;;;;;6101245;23;20186;-85
2022/03/04 07:14:29;;;;;;;14.07;9.30;;;;;;;;;;6101035;23;20195;-85
2022/03/04 07:16:58;;;;;;;14.07;9.27;;;;;;;;;;6100577;23;20226;-85
2022/03/04 07:19:27;;;;;;;13.57;8.80;;;;;;;;;;6127710;23;20229;-85
2022/03/04 07:21:55;;;;;;;13.90;10.47;;;;;;;;;;6102445;23;20202;-85
2022/03/04 07:24:24;;;;;;;14.93;10.80;;;;;;;;;;6126592;23;20179;-85
2022/03/04 07:26:52;;;;;;;12.60;8.53;;;;;;;;;;6102707;23;20186;-85
2022/03/04 07:29:21;;;;;;;14.07;10.47;;;;;;;;;;6124586;23;20191;-85
2022/03/04 07:31:50;;;;;;;16.80;12.10;;;;;;;;;;6101469;23;20189;-84
2022/03/04 07:34:20;;;;;;;19.30;12.00;;;;;;;;;;6101129;23;20234;-84
2022/03/04 07:36:48;;;;;;;14.80;9.13;;;;;;;;;;6126236;23;20176;-84
2022/03/04 07:39:17;;;;;;;6.73;5.77;;;;;;;;;;6099056;23;20201;-84
2022/03/04 07:41:47;;;;;;;13.30;11.43;;;;;;;;;;6098576;23;20180;-83
2022/03/04 07:44:15;;;;;;;18.60;11.37;;;;;;;;;;6099598;23;20184;-84
2022/03/04 07:46:44;;;;;;;11.33;7.40;;;;;;;;;;6124787;23;20217;-83
2022/03/04 07:49:13;;;;;;;13.80;8.43;;;;;;;;;;6100355;23;20183;-83
2022/03/04 07:51:43;;;;;;;11.33;8.43;;;;;;;;;;6100876;23;20180;-83
2022/03/04 07:54:11;;;;;;;13.43;10.43;;;;;;;;;;6101068;23;20179;-84
2022/03/04 07:56:40;;;;;;;15.23;9.87;;;;;;;;;;6101040;23;20264;-84
2022/03/04 07:59:08;;;;;;;18.87;11.17;;;;;;;;;;6100168;23;20179;-83
2022/03/04 08:01:37;;;;;;;6.07;5.37;;;;;;;;;;6100974;23;20179;-83
2022/03/04 08:04:11;;;;;;;5.33;4.83;;;;;;;;;;6125768;23;20204;-83
2022/03/04 08:06:44;;;;;;;12.43;7.20;;;;;;;;;;6101025;23;20191;-83
2022/03/04 08:09:13;;;;;;;13.67;9.73;;;;;;;;;;6100225;23;20180;-84
2022/03/04 08:11:44;;;;;;;7.80;5.87;;;;;;;;;;6125470;23;20204;-84
2022/03/04 08:14:18;;;;;;;13.20;9.97;;;;;;;;;;6101010;23;20180;-83
2022/03/04 08:16:47;;;;;;;16.67;12.17;;;;;;;;;;6101134;23;20177;-84
2022/03/04 08:19:28;;;;;;;7.37;6.07;;;;;;;;;;6101336;23;20191;-84
2022/03/04 08:21:59;;;;;;;16.13;10.43;;;;;;;;;;6101431;23;20176;-84
2022/03/04 08:24:49;;;;;;;18.03;12.13;;;;;;;;;;6100942;23;20180;-84
2022/03/04 08:27:23;;;;;;;12.23;7.60;;;;;;;;;;6125435;23;20211;-84
2022/03/04 08:29:54;;;;;;;15.10;9.30;;;;;;;;;;6100759;23;20185;-85
2022/03/04 08:32:23;;;;;;;4.70;4.40;;;;;;;;;;6125382;23;20176;-84
2022/03/04 08:35:01;;;;;;;12.60;8.90;;;;;;;;;;6100479;23;20231;-84
2022/03/04 08:37:35;;;;;;;10.50;8.13;;;;;;;;;;6100975;23;20180;-85
2022/03/04 08:40:11;;;;;;;14.40;9.67;;;;;;;;;;6101029;23;20211;-85
2022/03/04 08:42:52;;;;;;;18.23;11.43;;;;;;;;;;6101191;23;20183;-85
2022/03/04 08:45:32;;;;;;;18.67;11.97;;;;;;;;;;6125584;23;20172;-85
2022/03/04 08:48:24;;;;;;;12.73;8.73;;;;;;;;;;6125811;23;20231;-85
2022/03/04 08:51:08;;;;;;;8.13;5.93;;;;;;;;;;6124791;23;20204;-85
2022/03/04 08:53:41;;;;;;;20.00;13.70;;;;;;;;;;6126093;23;20214;-85
2022/03/04 08:56:22;;;;;;;10.80;8.77;;;;;;;;;;6100857;23;20255;-84
2022/03/04 08:58:53;;;;;;;14.67;10.30;;;;;;;;;;6101105;23;20176;-84
2022/03/04 09:01:30;;;;;;;16.50;11.30;;;;;;;;;;6100941;23;20176;-85
2022/03/04 09:04:14;;;;;;;13.80;9.97;;;;;;;;;;6125062;23;20203;-85
2022/03/04 09:06:49;;;;;;;18.13;10.50;;;;;;;;;;6100049;23;20203;-85
2022/03/04 09:09:20;;;;;;;18.53;11.33;;;;;;;;;;6125460;23;20176;-84
2022/03/04 09:11:50;;;;;;;15.10;7.57;;;;;;;;;;6101232;23;20180;-84
2022/03/04 09:14:27;;;;;;;17.37;12.53;;;;;;;;;;6100942;23;20176;-84
2022/03/04 09:16:58;;;;;;;13.47;9.53;;;;;;;;;;6100606;23;20196;-84
2022/03/04 09:19:32;;;;;;;14.57;10.63;;;;;;;;;;6100319;23;20176;-84
2022/03/04 09:22:22;;;;;;;18.53;9.73;;;;;;;;;;6124302;23;20196;-85
2022/03/04 09:25:11;;;;;;;18.63;11.87;;;;;;;;;;6100215;23;20175;-85
2022/03/04 09:27:48;;;;;;;16.53;8.67;;;;;;;;;;6099753;23;20252;-83
2022/03/04 09:30:25;;;;;;;14.13;10.23;;;;;;;;;;6101016;23;20176;-81
2022/03/04 09:32:57;;;;;;;18.03;13.53;;;;;;;;;;6101187;23;20176;-83
2022/03/04 09:35:31;;;;;;;14.33;6.83;;;;;;;;;;6100401;23;20192;-83
2022/03/04 09:38:03;;;;;;;13.77;12.10;;;;;;;;;;6124736;23;20183;-83
2022/03/04 09:40:33;;;;;;;14.90;10.70;;;;;;;;;;6099488;23;20180;-84
2022/03/04 09:43:03;;;;;;;8.43;7.70;;;;;;;;;;6099755;23;20173;-85
2022/03/04 09:45:35;;;;;;;16.80;10.83;;;;;;;;;;6099181;23;20209;-82
2022/03/04 09:48:06;;;;;;;14.20;11.97;;;;;;;;;;6099701;23;20182;-86
2022/03/04 09:50:43;;;;;;;16.67;11.10;;;;;;;;;;6100474;23;20181;-86
2022/03/04 09:53:15;;;;;;;10.10;7.60;;;;;;;;;;6100308;23;20180;-86
2022/03/04 09:55:52;;;;;;;8.07;6.40;;;;;;;;;;6098922;23;20290;-85
2022/03/04 09:58:25;;;;;;;15.40;10.23;;;;;;;;;;6124336;23;20187;-85
2022/03/04 10:00:57;;;;;;;14.27;11.67;;;;;;;;;;6100030;23;20188;-85
2022/03/04 10:03:46;;;;;;;18.47;11.00;;;;;;;;;;6099651;23;20199;-84
2022/03/04 10:06:24;;;;;;;17.07;10.30;;;;;;;;;;6100089;23;20176;-84
2022/03/04 10:08:53;;;;;;;13.93;8.70;;;;;;;;;;6124240;23;20176;-84
2022/03/04 10:11:32;;;;;;;12.43;9.47;;;;;;;;;;6124539;23;20207;-84
2022/03/04 10:14:06;;;;;;;8.43;6.37;;;;;;;;;;6124513;23;20249;-84
2022/03/04 10:16:36;;;;;;;18.23;10.20;;;;;;;;;;6124105;23;20196;-85
2022/03/04 10:19:14;;;;;;;14.80;10.20;;;;;;;;;;6100008;23;20266;-85
2022/03/04 10:21:52;;;;;;;17.67;12.13;;;;;;;;;;6100017;23;20179;-85
2022/03/04 10:24:23;;;;;;;5.37;4.83;;;;;;;;;;6124119;23;20187;-85
2022/03/04 10:27:06;;;;;;;14.83;10.87;;;;;;;;;;6099530;23;20176;-85
2022/03/04 10:29:41;;;;;;;16.77;11.63;;;;;;;;;;6099770;23;20181;-84
2022/03/04 10:32:15;;;;;;;13.63;9.73;;;;;;;;;;6123796;23;20184;-85
2022/03/04 10:34:53;;;;;;;12.40;7.97;;;;;;;;;;6099367;23;20180;-84
2022/03/04 10:37:26;;;;;;;13.40;9.10;;;;;;;;;;6099456;23;20200;-84
2022/03/04 10:42:56;;;;;;;10.40;8.10;;;;;;;;;;6098237;23;20186;-85
2022/03/04 10:45:32;;;;;;;18.47;13.07;;;;;;;;;;6100121;23;20740;-87
2022/03/04 10:48:20;;;;;;;6.37;5.77;;;;;;;;;;6126391;23;20195;-85
2022/03/04 10:51:21;;;;;;;18.40;10.37;;;;;;;;;;6126509;23;20162;-86
2022/03/04 10:53:51;;;;;;;19.17;12.83;;;;;;;;;;6124759;23;20212;-85
2022/03/04 10:56:24;;;;;;;10.80;8.20;;;;;;;;;;6101839;23;20284;-85
2022/03/04 10:59:21;;;;;;;12.97;9.77;;;;;;;;;;6126660;23;20239;-86
2022/03/04 11:02:09;;;;;;;13.40;10.83;;;;;;;;;;6127243;23;20204;-86
2022/03/04 11:04:38;;;;;;;15.50;11.10;;;;;;;;;;6102485;23;20182;-86
2022/03/04 11:07:06;;;;;;;14.67;12.03;;;;;;;;;;6102000;23;20176;-86
2022/03/04 11:09:38;;;;;;;8.30;6.33;;;;;;;;;;6127021;23;20216;-86
2022/03/04 11:12:07;;;;;;;12.77;9.57;;;;;;;;;;6102068;23;20228;-86
2022/03/04 11:14:35;;;;;;;19.03;13.20;;;;;;;;;;6101951;23;20218;-86
2022/03/04 11:17:04;;;;;;;17.27;12.37;;;;;;;;;;6127295;23;20189;-86
2022/03/04 11:19:36;;;;;;;18.80;12.63;;;;;;;;;;6126768;23;20228;-87
2022/03/04 11:22:07;;;;;;;11.97;8.90;;;;;;;;;;6102664;23;20181;-85
2022/03/04 11:24:43;;;;;;;8.77;6.87;;;;;;;;;;6101950;23;20178;-85
2022/03/04 11:27:25;;;;;;;13.43;9.57;;;;;;;;;;6100425;23;20177;-86
2022/03/04 11:30:24;;;;;;;14.60;9.10;;;;;;;;;;6126488;23;20181;-86
2022/03/04 11:33:00;;;;;;;11.37;9.43;;;;;;;;;;6100828;23;20184;-84
2022/03/04 11:35:49;;;;;;;6.77;4.50;;;;;;;;;;6102230;23;20258;-86
2022/03/04 11:38:39;;;;;;;7.20;5.60;;;;;;;;;;6101880;23;20203;-84
2022/03/04 11:41:08;;;;;;;8.57;6.47;;;;;;;;;;6101814;23;20209;-84
2022/03/04 11:44:00;;;;;;;13.10;8.90;;;;;;;;;;6126159;23;20182;-85
2022/03/04 11:46:42;;;;;;;16.93;11.67;;;;;;;;;;6125416;23;20212;-84
2022/03/04 11:49:31;;;;;;;10.37;8.60;;;;;;;;;;6127642;23;20171;-83
2022/03/04 11:52:20;;;;;;;10.73;8.60;;;;;;;;;;6125731;23;20182;-85
2022/03/04 11:55:20;;;;;;;;;;;;;;;;;;;;;
2022/03/04 11:58:04;;;;;;;14.93;8.80;;;;;;;;;;6101477;23;20214;-86
2022/03/04 12:00:43;;;;;;;9.57;5.40;;;;;;;;;;6101868;23;20203;-85
2022/03/04 12:03:21;;;;;;;14.43;8.20;;;;;;;;;;6101729;23;20267;-85
2022/03/04 12:13:26;;;;;;;11.40;7.50;;;;;;;;;;6093923;23;20183;-87
2022/03/04 12:20:07;;;;;;;6.83;4.20;;;;;;;;;;6100396;23;20179;-88
2022/03/04 12:23:12;;;;;;;9.63;7.00;;;;;;;;;;6011899;23;20209;-88
2022/03/04 12:26:22;;;;;;;14.20;10.43;;;;;;;;;;6013753;23;20182;-86
2022/03/04 12:39:51;;;;;;;14.43;7.67;;;;;;;;;;5983823;23;20180;-87
2022/03/04 12:46:13;;;;;;;16.17;10.23;;;;;;;;;;6094768;23;20214;-87
2022/03/04 12:49:12;;;;;;;6.90;5.53;;;;;;;;;;6101376;23;20181;-86
2022/03/04 12:52:08;;;;;;;7.83;5.17;;;;;;;;;;6101473;23;20174;-86
2022/03/04 12:54:54;;;;;;;14.80;10.23;;;;;;;;;;6101212;23;20234;-86
2022/03/04 12:57:48;;;;;;;8.33;5.97;;;;;;;;;;6101471;23;20195;-87
2022/03/04 13:00:28;;;;;;;16.47;11.40;;;;;;;;;;6101511;23;20187;-85
2022/03/04 13:04:09;;;;;;;8.43;6.10;;;;;;;;;;6125672;23;20203;-86
2022/03/04 13:10:46;;;;;;;15.37;10.77;;;;;;;;;;5956078;24;20234;-84
2022/03/04 13:20:40;;;;;;;14.63;9.83;;;;;;;;;;6035995;23;20210;-85
2022/03/04 13:23:23;;;;;;;6.43;4.27;;;;;;;;;;6036682;23;20185;-85
2022/03/04 13:26:36;;;;;;;10.67;7.60;;;;;;;;;;6013324;23;20182;-86
2022/03/04 13:37:33;;;;;;;13.80;8.40;;;;;;;;;;5892799;24;20299;-84
2022/03/04 13:40:40;;;;;;;;;;;;;;;;;;;;;
2022/03/04 13:44:00;;;;;;;13.37;9.30;;;;;;;;;;6058165;23;20203;-85
2022/03/04 13:50:37;;;;;;;11.43;8.33;;;;;;;;;;6098375;23;20172;-86
2022/03/04 13:53:37;;;;;;;10.10;6.77;;;;;;;;;;6099754;23;20184;-86
2022/03/04 13:56:36;;;;;;;16.10;9.73;;;;;;;;;;6123431;23;20178;-86
2022/03/04 14:06:21;;;;;;;;;;;;;;;;;;;;;
2022/03/04 14:16:18;;;;;;;15.13;11.17;;;;;;;;;;6089232;23;20191;-85
2022/03/04 14:19:23;;;;;;;15.23;9.90;;;;;;;;;;6098724;23;20196;-87
2022/03/04 14:22:04;;;;;;;12.27;8.90;;;;;;;;;;6125123;23;20177;-84
2022/03/04 14:24:51;;;;;;;10.23;7.47;;;;;;;;;;6099945;23;20183;-85
2022/03/04 14:27:48;;;;;;;7.03;5.27;;;;;;;;;;6095971;23;20180;-85
2022/03/04 14:30:25;;;;;;;9.70;6.73;;;;;;;;;;6100909;23;20192;-87
2022/03/04 14:33:10;;;;;;;11.33;7.90;;;;;;;;;;6098975;23;20258;-85
2022/03/04 14:35:56;;;;;;;11.73;8.37;;;;;;;;;;6099746;23;20180;-87
2022/03/04 14:42:47;;;;;;;3.27;2.97;;;;;;;;;;5972308;23;20217;-86
2022/03/04 14:48:38;;;;;;;9.73;6.83;;;;;;;;;;6007463;23;20329;-87
2022/03/04 14:51:35;;;;;;;12.97;8.73;;;;;;;;;;6004352;23;20334;-88
2022/03/04 14:54:27;;;;;;;14.17;9.53;;;;;;;;;;5985477;23;20179;-87
2022/03/04 14:57:30;;;;;;;16.73;11.63;;;;;;;;;;5984883;23;20183;-87
2022/03/04 15:00:17;;;;;;;11.50;9.13;;;;;;;;;;6067498;23;20187;-88
2022/03/04 15:02:56;;;;;;;7.10;6.10;;;;;;;;;;6100092;23;20196;-88
2022/03/04 15:05:45;;;;;;;10.97;7.57;;;;;;;;;;6101011;23;20227;-88
2022/03/04 15:09:23;;;;;;;9.77;7.07;;;;;;;;;;6100995;23;20169;-87
2022/03/04 15:12:27;;;;;;;4.20;3.27;;;;;;;;;;6100288;23;20179;-87
2022/03/04 15:21:48;;;;;;;11.53;7.40;;;;;;;;;;6097608;23;20180;-87
2022/03/04 15:24:20;;;;;;;10.53;7.13;;;;;;;;;;6100299;23;20184;-87
2022/03/04 15:26:51;;;;;;;12.33;8.17;;;;;;;;;;6100467;23;20187;-88
2022/03/04 15:29:26;;;;;;;6.93;6.17;;;;;;;;;;6100337;23;20181;-89
2022/03/04 15:36:01;;;;;;;;;;;;;;;;;;;;;
2022/03/04 15:42:10;;;;;;;9.13;7.03;;;;;;;;;;5996156;23;20186;-89
2022/03/04 15:47:48;;;;;;;6.93;5.70;;;;;;;;;;6100317;23;20211;-88
2022/03/04 15:50:17;;;;;;;9.30;6.00;;;;;;;;;;6099457;23;20270;-87
2022/03/04 15:52:50;;;;;;;10.87;7.73;;;;;;;;;;6096884;23;20179;-87
2022/03/04 15:55:19;;;;;;;10.27;6.97;;;;;;;;;;6097519;23;20176;-87
2022/03/04 15:57:53;;;;;;;15.67;11.60;;;;;;;;;;6101785;23;20187;-87
2022/03/04 16:00:22;;;;;;;15.80;9.30;;;;;;;;;;6126148;23;20179;-85
2022/03/04 16:02:51;;;;;;;9.77;6.83;;;;;;;;;;6126426;23;20222;-87
2022/03/04 16:05:20;;;;;;;13.07;9.27;;;;;;;;;;6126464;23;20179;-87
2022/03/04 16:07:57;;;;;;;13.27;8.83;;;;;;;;;;6128449;23;20255;-86
2022/03/04 16:10:34;;;;;;;9.23;5.57;;;;;;;;;;6102247;23;20201;-85
2022/03/04 16:13:20;;;;;;;13.20;7.63;;;;;;;;;;6101917;23;20187;-84
2022/03/04 16:16:01;;;;;;;18.53;11.30;;;;;;;;;;6126095;23;20179;-85
2022/03/04 16:18:31;;;;;;;12.97;10.37;;;;;;;;;;6102096;23;20271;-85
2022/03/04 16:21:02;;;;;;;14.77;11.40;;;;;;;;;;6100198;23;20183;-85
2022/03/04 16:23:37;;;;;;;15.67;8.17;;;;;;;;;;6121597;23;20209;-85
2022/03/04 16:26:17;;;;;;;15.97;10.90;;;;;;;;;;6121116;23;20182;-85
2022/03/04 16:28:56;;;;;;;9.03;7.33;;;;;;;;;;6125283;23;20176;-85
2022/03/04 16:31:27;;;;;;;12.87;10.20;;;;;;;;;;6100969;23;20179;-85
2022/03/04 16:34:00;;;;;;;10.90;8.17;;;;;;;;;;6101143;23;20181;-85
2022/03/04 16:36:29;;;;;;;10.60;8.90;;;;;;;;;;6125396;23;20183;-84
2022/03/04 16:38:59;;;;;;;14.43;10.40;;;;;;;;;;6124165;23;20222;-84
2022/03/04 16:41:27;;;;;;;8.80;6.30;;;;;;;;;;6126140;23;20178;-84
2022/03/04 16:43:56;;;;;;;9.33;7.43;;;;;;;;;;6125986;23;20175;-84
2022/03/04 16:46:25;;;;;;;11.63;6.70;;;;;;;;;;6127104;23;20175;-85
2022/03/04 16:49:06;;;;;;;12.27;8.80;;;;;;;;;;6126282;23;20273;-85
2022/03/04 16:51:35;;;;;;;12.10;8.07;;;;;;;;;;6126525;23;20181;-85
2022/03/04 16:54:05;;;;;;;8.27;5.30;;;;;;;;;;6100714;23;20183;-85
2022/03/04 16:56:33;;;;;;;6.57;4.03;;;;;;;;;;6100908;23;20201;-84
2022/03/04 16:59:02;;;;;;;6.37;4.90;;;;;;;;;;6101870;23;20198;-85
2022/03/04 17:01:51;;;;;;;6.97;4.37;;;;;;;;;;6126499;23;20187;-85